sensor_id;sensor_type;location;lat;lon;timestamp;temperature;humidity
3684;DHT22;1858;48.716;9.648;2022-12-29T00:00:10;8.30;1.40
3684;DHT22;1858;48.716;9.648;2022-12-29T00:02:39;8.30;1.00
3684;DHT22;1858;48.716;9.648;2022-12-29T00:05:07;8.30;4.70
3684;DHT22;1858;48.716;9.648;2022-12-29T00:07:36;8.30;8.10
3684;DHT22;1858;48.716;9.648;2022-12-29T00:10:05;8.20;13.70
3684;DHT22;1858;48.716;9.648;2022-12-29T00:12:34;8.20;17.00
3684;DHT22;1858;48.716;9.648;2022-12-29T00:15:20;8.20;9.30
3684;DHT22;1858;48.716;9.648;2022-12-29T00:18:04;8.20;2.70
3684;DHT22;1858;48.716;9.648;2022-12-29T00:20:35;8.20;3.30
3684;DHT22;1858;48.716;9.648;2022-12-29T00:23:21;8.30;5.60
3684;DHT22;1858;48.716;9.648;2022-12-29T00:26:16;8.20;9.20
3684;DHT22;1858;48.716;9.648;2022-12-29T00:29:02;8.20;4.10
3684;DHT22;1858;48.716;9.648;2022-12-29T00:31:48;8.20;8.50
3684;DHT22;1858;48.716;9.648;2022-12-29T00:34:35;8.40;1.50
3684;DHT22;1858;48.716;9.648;2022-12-29T00:37:22;8.40;1.80
3684;DHT22;1858;48.716;9.648;2022-12-29T00:39:52;8.40;8.30
3684;DHT22;1858;48.716;9.648;2022-12-29T00:42:40;8.40;13.70
3684;DHT22;1858;48.716;9.648;2022-12-29T00:45:26;8.60;20.30
3684;DHT22;1858;48.716;9.648;2022-12-29T00:47:54;8.60;21.90
3684;DHT22;1858;48.716;9.648;2022-12-29T00:50:22;8.70;17.90
3684;DHT22;1858;48.716;9.648;2022-12-29T00:52:51;8.70;18.60
3684;DHT22;1858;48.716;9.648;2022-12-29T00:55:19;8.80;21.40
3684;DHT22;1858;48.716;9.648;2022-12-29T00:57:48;8.80;27.40
3684;DHT22;1858;48.716;9.648;2022-12-29T01:00:16;8.80;23.30
3684;DHT22;1858;48.716;9.648;2022-12-29T01:02:45;8.90;15.60
3684;DHT22;1858;48.716;9.648;2022-12-29T01:05:13;8.90;17.70
3684;DHT22;1858;48.716;9.648;2022-12-29T01:07:42;8.90;11.80
3684;DHT22;1858;48.716;9.648;2022-12-29T01:10:10;8.90;15.40
3684;DHT22;1858;48.716;9.648;2022-12-29T01:12:38;9.00;19.00
3684;DHT22;1858;48.716;9.648;2022-12-29T01:15:14;9.00;16.70
3684;DHT22;1858;48.716;9.648;2022-12-29T01:17:42;9.00;1.00
3684;DHT22;1858;48.716;9.648;2022-12-29T01:20:11;9.10;1.00
3684;DHT22;1858;48.716;9.648;2022-12-29T01:22:40;9.20;1.00
3684;DHT22;1858;48.716;9.648;2022-12-29T01:25:09;9.20;1.00
3684;DHT22;1858;48.716;9.648;2022-12-29T01:27:38;9.30;1.00
3684;DHT22;1858;48.716;9.648;2022-12-29T01:30:07;9.40;1.00
3684;DHT22;1858;48.716;9.648;2022-12-29T01:32:35;9.40;1.00
3684;DHT22;1858;48.716;9.648;2022-12-29T01:35:04;9.50;1.00
3684;DHT22;1858;48.716;9.648;2022-12-29T01:37:33;9.50;1.00
3684;DHT22;1858;48.716;9.648;2022-12-29T01:40:01;9.50;1.00
3684;DHT22;1858;48.716;9.648;2022-12-29T01:42:29;9.50;1.00
3684;DHT22;1858;48.716;9.648;2022-12-29T01:45:09;9.60;1.00
3684;DHT22;1858;48.716;9.648;2022-12-29T01:47:49;9.60;1.00
3684;DHT22;1858;48.716;9.648;2022-12-29T01:50:20;9.60;1.00
3684;DHT22;1858;48.716;9.648;2022-12-29T01:52:54;9.60;1.00
3684;DHT22;1858;48.716;9.648;2022-12-29T01:55:21;9.60;1.00
3684;DHT22;1858;48.716;9.648;2022-12-29T01:57:51;9.60;1.00
3684;DHT22;1858;48.716;9.648;2022-12-29T02:00:21;9.70;1.00
3684;DHT22;1858;48.716;9.648;2022-12-29T02:02:51;9.70;1.00
3684;DHT22;1858;48.716;9.648;2022-12-29T02:07:54;9.70;1.00
3684;DHT22;1858;48.716;9.648;2022-12-29T02:10:25;9.80;1.00
3684;DHT22;1858;48.716;9.648;2022-12-29T02:12:54;9.90;1.00
3684;DHT22;1858;48.716;9.648;2022-12-29T02:15:36;10.10;1.00
3684;DHT22;1858;48.716;9.648;2022-12-29T02:23:55;10.10;1.00
3684;DHT22;1858;48.716;9.648;2022-12-29T02:29:45;10.10;1.00
3684;DHT22;1858;48.716;9.648;2022-12-29T02:32:24;10.10;1.00
3684;DHT22;1858;48.716;9.648;2022-12-29T02:37:58;10.10;1.00
3684;DHT22;1858;48.716;9.648;2022-12-29T02:40:43;10.10;1.00
3684;DHT22;1858;48.716;9.648;2022-12-29T02:48:51;10.10;1.00
3684;DHT22;1858;48.716;9.648;2022-12-29T02:51:23;10.10;1.00
3684;DHT22;1858;48.716;9.648;2022-12-29T02:53:51;10.00;1.00
3684;DHT22;1858;48.716;9.648;2022-12-29T02:56:38;9.90;1.00
3684;DHT22;1858;48.716;9.648;2022-12-29T02:59:07;9.90;1.00
3684;DHT22;1858;48.716;9.648;2022-12-29T03:02:05;9.80;1.00
3684;DHT22;1858;48.716;9.648;2022-12-29T03:11:05;9.70;1.00
3684;DHT22;1858;48.716;9.648;2022-12-29T03:13:49;9.70;1.00
3684;DHT22;1858;48.716;9.648;2022-12-29T03:16:43;9.70;1.00
3684;DHT22;1858;48.716;9.648;2022-12-29T03:21:55;9.80;1.00
3684;DHT22;1858;48.716;9.648;2022-12-29T03:24:44;9.70;1.00
3684;DHT22;1858;48.716;9.648;2022-12-29T03:27:20;9.80;1.00
3684;DHT22;1858;48.716;9.648;2022-12-29T03:29:52;9.80;1.00
3684;DHT22;1858;48.716;9.648;2022-12-29T03:32:42;9.80;1.00
3684;DHT22;1858;48.716;9.648;2022-12-29T03:35:05;9.80;1.00
3684;DHT22;1858;48.716;9.648;2022-12-29T03:37:41;9.90;1.00
3684;DHT22;1858;48.716;9.648;2022-12-29T03:40:07;9.80;1.00
3684;DHT22;1858;48.716;9.648;2022-12-29T03:42:36;9.70;1.00
3684;DHT22;1858;48.716;9.648;2022-12-29T03:45:07;9.70;1.00
3684;DHT22;1858;48.716;9.648;2022-12-29T03:47:36;9.80;1.00
3684;DHT22;1858;48.716;9.648;2022-12-29T03:50:05;9.80;1.00
3684;DHT22;1858;48.716;9.648;2022-12-29T03:52:35;9.70;1.00
3684;DHT22;1858;48.716;9.648;2022-12-29T03:55:04;9.70;1.00
3684;DHT22;1858;48.716;9.648;2022-12-29T03:57:32;9.70;1.00
3684;DHT22;1858;48.716;9.648;2022-12-29T04:00:01;9.50;1.00
3684;DHT22;1858;48.716;9.648;2022-12-29T04:02:30;9.40;1.00
3684;DHT22;1858;48.716;9.648;2022-12-29T04:04:58;9.40;1.00
3684;DHT22;1858;48.716;9.648;2022-12-29T04:07:26;9.30;1.00
3684;DHT22;1858;48.716;9.648;2022-12-29T04:09:55;9.40;1.00
3684;DHT22;1858;48.716;9.648;2022-12-29T04:12:23;9.30;1.00
3684;DHT22;1858;48.716;9.648;2022-12-29T04:14:51;9.40;1.00
3684;DHT22;1858;48.716;9.648;2022-12-29T04:17:20;9.40;1.00
3684;DHT22;1858;48.716;9.648;2022-12-29T04:19:48;9.40;1.00
3684;DHT22;1858;48.716;9.648;2022-12-29T04:22:17;9.50;1.00
3684;DHT22;1858;48.716;9.648;2022-12-29T04:24:45;9.50;1.00
3684;DHT22;1858;48.716;9.648;2022-12-29T04:27:13;9.40;1.00
3684;DHT22;1858;48.716;9.648;2022-12-29T04:29:42;9.50;1.00
3684;DHT22;1858;48.716;9.648;2022-12-29T04:32:10;9.40;1.00
3684;DHT22;1858;48.716;9.648;2022-12-29T04:34:38;9.40;1.00
3684;DHT22;1858;48.716;9.648;2022-12-29T04:37:07;9.30;1.00
3684;DHT22;1858;48.716;9.648;2022-12-29T04:39:35;9.30;1.00
3684;DHT22;1858;48.716;9.648;2022-12-29T04:42:03;9.20;1.00
3684;DHT22;1858;48.716;9.648;2022-12-29T04:44:32;9.10;1.00
3684;DHT22;1858;48.716;9.648;2022-12-29T04:47:01;9.10;1.00
3684;DHT22;1858;48.716;9.648;2022-12-29T04:49:29;9.00;1.00
3684;DHT22;1858;48.716;9.648;2022-12-29T04:51:58;9.00;1.00
3684;DHT22;1858;48.716;9.648;2022-12-29T04:54:26;9.00;1.00
3684;DHT22;1858;48.716;9.648;2022-12-29T04:56:54;8.80;1.00
3684;DHT22;1858;48.716;9.648;2022-12-29T04:59:23;8.90;1.00
3684;DHT22;1858;48.716;9.648;2022-12-29T05:01:51;8.60;1.00
3684;DHT22;1858;48.716;9.648;2022-12-29T05:04:20;8.70;1.00
3684;DHT22;1858;48.716;9.648;2022-12-29T05:06:48;8.70;1.00
3684;DHT22;1858;48.716;9.648;2022-12-29T05:09:16;8.70;1.00
3684;DHT22;1858;48.716;9.648;2022-12-29T05:11:45;8.50;1.00
3684;DHT22;1858;48.716;9.648;2022-12-29T05:14:13;8.50;1.00
3684;DHT22;1858;48.716;9.648;2022-12-29T05:16:42;8.50;1.00
3684;DHT22;1858;48.716;9.648;2022-12-29T05:19:10;8.40;1.00
3684;DHT22;1858;48.716;9.648;2022-12-29T05:21:38;8.30;1.00
3684;DHT22;1858;48.716;9.648;2022-12-29T05:24:07;8.20;1.00
3684;DHT22;1858;48.716;9.648;2022-12-29T05:26:35;8.10;1.00
3684;DHT22;1858;48.716;9.648;2022-12-29T05:29:04;8.10;1.00
3684;DHT22;1858;48.716;9.648;2022-12-29T05:31:32;8.00;1.00
3684;DHT22;1858;48.716;9.648;2022-12-29T05:34:02;7.90;1.00
3684;DHT22;1858;48.716;9.648;2022-12-29T05:36:31;7.80;1.00
3684;DHT22;1858;48.716;9.648;2022-12-29T05:39:00;7.80;1.00
3684;DHT22;1858;48.716;9.648;2022-12-29T05:41:28;7.70;1.00
3684;DHT22;1858;48.716;9.648;2022-12-29T05:43:56;7.70;1.00
3684;DHT22;1858;48.716;9.648;2022-12-29T05:46:25;7.80;1.00
3684;DHT22;1858;48.716;9.648;2022-12-29T05:48:54;7.80;1.00
3684;DHT22;1858;48.716;9.648;2022-12-29T05:51:22;7.80;1.00
3684;DHT22;1858;48.716;9.648;2022-12-29T05:53:51;7.80;1.00
3684;DHT22;1858;48.716;9.648;2022-12-29T05:56:19;7.80;1.00
3684;DHT22;1858;48.716;9.648;2022-12-29T05:58:47;7.70;1.00
3684;DHT22;1858;48.716;9.648;2022-12-29T06:01:16;7.70;1.00
3684;DHT22;1858;48.716;9.648;2022-12-29T06:03:44;7.70;1.00
3684;DHT22;1858;48.716;9.648;2022-12-29T06:06:12;7.80;1.00
3684;DHT22;1858;48.716;9.648;2022-12-29T06:08:41;7.80;1.00
3684;DHT22;1858;48.716;9.648;2022-12-29T06:11:10;7.80;1.00
3684;DHT22;1858;48.716;9.648;2022-12-29T06:13:38;7.90;1.00
3684;DHT22;1858;48.716;9.648;2022-12-29T06:16:07;7.80;1.00
3684;DHT22;1858;48.716;9.648;2022-12-29T06:18:35;7.80;1.00
3684;DHT22;1858;48.716;9.648;2022-12-29T06:21:04;7.80;1.00
3684;DHT22;1858;48.716;9.648;2022-12-29T06:23:33;7.80;1.00
3684;DHT22;1858;48.716;9.648;2022-12-29T06:26:01;7.90;1.00
3684;DHT22;1858;48.716;9.648;2022-12-29T06:28:29;7.90;1.00
3684;DHT22;1858;48.716;9.648;2022-12-29T06:30:58;8.00;1.00
3684;DHT22;1858;48.716;9.648;2022-12-29T06:33:26;7.90;1.00
3684;DHT22;1858;48.716;9.648;2022-12-29T06:35:54;7.90;1.00
3684;DHT22;1858;48.716;9.648;2022-12-29T06:38:23;7.90;1.00
3684;DHT22;1858;48.716;9.648;2022-12-29T06:40:51;8.00;1.00
3684;DHT22;1858;48.716;9.648;2022-12-29T06:43:20;7.90;1.00
3684;DHT22;1858;48.716;9.648;2022-12-29T06:45:48;7.90;1.00
3684;DHT22;1858;48.716;9.648;2022-12-29T06:48:16;8.00;1.00
3684;DHT22;1858;48.716;9.648;2022-12-29T06:50:45;8.10;1.00
3684;DHT22;1858;48.716;9.648;2022-12-29T06:53:14;8.20;1.00
3684;DHT22;1858;48.716;9.648;2022-12-29T06:55:42;8.20;1.00
3684;DHT22;1858;48.716;9.648;2022-12-29T06:58:11;8.20;1.00
3684;DHT22;1858;48.716;9.648;2022-12-29T07:00:40;8.20;1.00
3684;DHT22;1858;48.716;9.648;2022-12-29T07:03:09;8.10;1.00
3684;DHT22;1858;48.716;9.648;2022-12-29T07:05:38;8.20;3.20
3684;DHT22;1858;48.716;9.648;2022-12-29T07:08:07;8.20;4.70
3684;DHT22;1858;48.716;9.648;2022-12-29T07:10:36;8.20;4.80
3684;DHT22;1858;48.716;9.648;2022-12-29T07:13:04;8.30;6.20
3684;DHT22;1858;48.716;9.648;2022-12-29T07:15:40;8.30;10.40
3684;DHT22;1858;48.716;9.648;2022-12-29T07:18:07;8.30;9.90
3684;DHT22;1858;48.716;9.648;2022-12-29T07:20:35;8.40;5.30
3684;DHT22;1858;48.716;9.648;2022-12-29T07:23:04;8.40;4.50
3684;DHT22;1858;48.716;9.648;2022-12-29T07:25:33;8.40;3.50
3684;DHT22;1858;48.716;9.648;2022-12-29T07:28:04;8.40;1.00
3684;DHT22;1858;48.716;9.648;2022-12-29T07:30:32;8.50;1.00
3684;DHT22;1858;48.716;9.648;2022-12-29T07:33:01;8.60;1.00
3684;DHT22;1858;48.716;9.648;2022-12-29T07:35:31;8.70;1.00
3684;DHT22;1858;48.716;9.648;2022-12-29T07:38:01;8.80;1.00
3684;DHT22;1858;48.716;9.648;2022-12-29T07:40:29;9.10;1.00
3684;DHT22;1858;48.716;9.648;2022-12-29T07:42:58;9.20;1.00
3684;DHT22;1858;48.716;9.648;2022-12-29T07:45:26;9.20;1.00
3684;DHT22;1858;48.716;9.648;2022-12-29T07:47:55;9.20;1.00
3684;DHT22;1858;48.716;9.648;2022-12-29T07:50:25;9.30;1.00
3684;DHT22;1858;48.716;9.648;2022-12-29T07:52:55;9.40;1.00
3684;DHT22;1858;48.716;9.648;2022-12-29T07:55:24;9.40;1.00
3684;DHT22;1858;48.716;9.648;2022-12-29T07:57:56;9.40;1.00
3684;DHT22;1858;48.716;9.648;2022-12-29T08:00:25;9.40;1.00
3684;DHT22;1858;48.716;9.648;2022-12-29T08:02:54;9.40;1.00
3684;DHT22;1858;48.716;9.648;2022-12-29T08:05:22;9.50;1.00
3684;DHT22;1858;48.716;9.648;2022-12-29T08:07:51;9.50;1.00
3684;DHT22;1858;48.716;9.648;2022-12-29T08:10:19;9.50;1.00
3684;DHT22;1858;48.716;9.648;2022-12-29T08:12:48;9.60;1.00
3684;DHT22;1858;48.716;9.648;2022-12-29T08:15:17;9.60;1.00
3684;DHT22;1858;48.716;9.648;2022-12-29T08:17:45;9.70;1.00
3684;DHT22;1858;48.716;9.648;2022-12-29T08:20:14;9.80;1.00
3684;DHT22;1858;48.716;9.648;2022-12-29T08:22:44;9.90;1.00
3684;DHT22;1858;48.716;9.648;2022-12-29T08:25:13;9.90;1.00
3684;DHT22;1858;48.716;9.648;2022-12-29T08:27:42;10.10;1.00
3684;DHT22;1858;48.716;9.648;2022-12-29T08:30:11;10.30;1.00
3684;DHT22;1858;48.716;9.648;2022-12-29T08:32:40;10.40;1.00
3684;DHT22;1858;48.716;9.648;2022-12-29T08:35:09;10.60;1.00
3684;DHT22;1858;48.716;9.648;2022-12-29T08:37:37;10.90;1.00
3684;DHT22;1858;48.716;9.648;2022-12-29T08:40:09;11.10;1.00
3684;DHT22;1858;48.716;9.648;2022-12-29T08:42:38;11.40;1.00
3684;DHT22;1858;48.716;9.648;2022-12-29T08:45:11;11.60;1.00
3684;DHT22;1858;48.716;9.648;2022-12-29T08:47:39;11.80;1.00
3684;DHT22;1858;48.716;9.648;2022-12-29T08:50:08;12.10;1.00
3684;DHT22;1858;48.716;9.648;2022-12-29T08:52:36;12.30;1.00
3684;DHT22;1858;48.716;9.648;2022-12-29T08:55:07;12.40;1.00
3684;DHT22;1858;48.716;9.648;2022-12-29T08:57:36;12.50;1.00
3684;DHT22;1858;48.716;9.648;2022-12-29T09:00:06;12.50;1.00
3684;DHT22;1858;48.716;9.648;2022-12-29T09:02:35;12.50;1.00
3684;DHT22;1858;48.716;9.648;2022-12-29T09:07:53;12.50;1.00
3684;DHT22;1858;48.716;9.648;2022-12-29T09:10:22;12.60;1.00
3684;DHT22;1858;48.716;9.648;2022-12-29T09:12:54;12.50;1.00
3684;DHT22;1858;48.716;9.648;2022-12-29T09:15:22;12.50;1.00
3684;DHT22;1858;48.716;9.648;2022-12-29T09:17:51;12.60;1.00
3684;DHT22;1858;48.716;9.648;2022-12-29T09:20:20;12.60;1.00
3684;DHT22;1858;48.716;9.648;2022-12-29T09:22:49;12.60;1.00
3684;DHT22;1858;48.716;9.648;2022-12-29T09:25:19;12.60;1.00
3684;DHT22;1858;48.716;9.648;2022-12-29T09:27:48;12.80;1.00
3684;DHT22;1858;48.716;9.648;2022-12-29T09:30:17;12.90;1.00
3684;DHT22;1858;48.716;9.648;2022-12-29T09:32:45;12.90;1.00
3684;DHT22;1858;48.716;9.648;2022-12-29T09:35:15;13.00;1.00
3684;DHT22;1858;48.716;9.648;2022-12-29T09:37:44;13.00;1.00
3684;DHT22;1858;48.716;9.648;2022-12-29T09:40:27;13.10;1.00
3684;DHT22;1858;48.716;9.648;2022-12-29T09:43:23;13.00;1.00
3684;DHT22;1858;48.716;9.648;2022-12-29T09:48:25;13.00;1.00
3684;DHT22;1858;48.716;9.648;2022-12-29T09:51:15;13.00;1.00
3684;DHT22;1858;48.716;9.648;2022-12-29T09:54:16;12.90;1.00
3684;DHT22;1858;48.716;9.648;2022-12-29T09:56:35;12.90;1.00
3684;DHT22;1858;48.716;9.648;2022-12-29T09:59:18;13.00;1.00
3684;DHT22;1858;48.716;9.648;2022-12-29T10:01:53;13.00;1.00
3684;DHT22;1858;48.716;9.648;2022-12-29T10:04:21;12.90;1.00
3684;DHT22;1858;48.716;9.648;2022-12-29T10:07:05;12.90;1.00
3684;DHT22;1858;48.716;9.648;2022-12-29T10:09:58;13.00;1.00
3684;DHT22;1858;48.716;9.648;2022-12-29T10:15:27;13.10;1.00
3684;DHT22;1858;48.716;9.648;2022-12-29T10:18:02;13.20;1.00
3684;DHT22;1858;48.716;9.648;2022-12-29T10:20:31;13.30;1.00
3684;DHT22;1858;48.716;9.648;2022-12-29T10:23:40;13.50;1.00
3684;DHT22;1858;48.716;9.648;2022-12-29T10:26:13;13.50;1.00
3684;DHT22;1858;48.716;9.648;2022-12-29T10:28:54;13.60;1.00
3684;DHT22;1858;48.716;9.648;2022-12-29T10:31:34;13.70;1.00
3684;DHT22;1858;48.716;9.648;2022-12-29T10:34:03;13.70;1.00
3684;DHT22;1858;48.716;9.648;2022-12-29T10:36:34;13.70;1.00
3684;DHT22;1858;48.716;9.648;2022-12-29T10:39:22;13.50;1.00
3684;DHT22;1858;48.716;9.648;2022-12-29T10:41:49;13.50;1.00
3684;DHT22;1858;48.716;9.648;2022-12-29T10:44:21;13.50;1.00
3684;DHT22;1858;48.716;9.648;2022-12-29T10:46:59;13.60;1.00
3684;DHT22;1858;48.716;9.648;2022-12-29T10:49:30;13.60;1.00
3684;DHT22;1858;48.716;9.648;2022-12-29T10:52:02;13.60;1.00
3684;DHT22;1858;48.716;9.648;2022-12-29T10:54:38;13.50;1.00
3684;DHT22;1858;48.716;9.648;2022-12-29T10:57:09;13.50;1.00
3684;DHT22;1858;48.716;9.648;2022-12-29T10:59:39;13.60;1.00
3684;DHT22;1858;48.716;9.648;2022-12-29T11:05:06;13.60;1.00
3684;DHT22;1858;48.716;9.648;2022-12-29T11:07:36;13.60;1.00
3684;DHT22;1858;48.716;9.648;2022-12-29T11:15:27;13.40;1.00
3684;DHT22;1858;48.716;9.648;2022-12-29T11:17:59;13.50;1.00
3684;DHT22;1858;48.716;9.648;2022-12-29T11:20:38;13.50;1.00
3684;DHT22;1858;48.716;9.648;2022-12-29T11:23:38;13.60;1.00
3684;DHT22;1858;48.716;9.648;2022-12-29T11:26:16;13.60;1.00
3684;DHT22;1858;48.716;9.648;2022-12-29T11:28:47;13.50;1.00
3684;DHT22;1858;48.716;9.648;2022-12-29T11:31:18;13.50;1.00
3684;DHT22;1858;48.716;9.648;2022-12-29T11:33:47;13.50;1.00
3684;DHT22;1858;48.716;9.648;2022-12-29T11:36:21;13.60;1.00
3684;DHT22;1858;48.716;9.648;2022-12-29T11:38:53;13.70;1.00
3684;DHT22;1858;48.716;9.648;2022-12-29T11:41:28;13.70;1.00
3684;DHT22;1858;48.716;9.648;2022-12-29T11:44:00;13.70;1.00
3684;DHT22;1858;48.716;9.648;2022-12-29T11:46:34;13.80;1.00
3684;DHT22;1858;48.716;9.648;2022-12-29T11:49:04;13.80;1.00
3684;DHT22;1858;48.716;9.648;2022-12-29T11:51:45;13.70;1.00
3684;DHT22;1858;48.716;9.648;2022-12-29T11:54:22;13.80;1.00
3684;DHT22;1858;48.716;9.648;2022-12-29T11:56:50;13.80;1.00
3684;DHT22;1858;48.716;9.648;2022-12-29T12:02:11;13.80;1.00
3684;DHT22;1858;48.716;9.648;2022-12-29T12:04:57;13.90;1.00
3684;DHT22;1858;48.716;9.648;2022-12-29T12:07:37;13.70;1.00
3684;DHT22;1858;48.716;9.648;2022-12-29T12:10:06;13.70;1.00
3684;DHT22;1858;48.716;9.648;2022-12-29T12:13:02;13.60;1.00
3684;DHT22;1858;48.716;9.648;2022-12-29T12:15:13;13.60;1.00
3684;DHT22;1858;48.716;9.648;2022-12-29T12:17:55;13.60;1.00
3684;DHT22;1858;48.716;9.648;2022-12-29T12:20:36;13.60;1.00
3684;DHT22;1858;48.716;9.648;2022-12-29T12:25:38;13.50;1.00
3684;DHT22;1858;48.716;9.648;2022-12-29T12:28:19;13.40;1.00
3684;DHT22;1858;48.716;9.648;2022-12-29T12:30:48;13.30;1.00
3684;DHT22;1858;48.716;9.648;2022-12-29T12:33:23;13.30;1.00
3684;DHT22;1858;48.716;9.648;2022-12-29T12:44:48;13.30;1.00
3684;DHT22;1858;48.716;9.648;2022-12-29T12:47:40;13.30;1.00
3684;DHT22;1858;48.716;9.648;2022-12-29T12:50:31;13.30;1.00
3684;DHT22;1858;48.716;9.648;2022-12-29T12:53:23;13.30;1.00
3684;DHT22;1858;48.716;9.648;2022-12-29T12:58:59;13.50;1.00
3684;DHT22;1858;48.716;9.648;2022-12-29T13:01:42;13.40;1.00
3684;DHT22;1858;48.716;9.648;2022-12-29T13:04:45;13.40;1.00
3684;DHT22;1858;48.716;9.648;2022-12-29T13:10:12;13.40;1.00
3684;DHT22;1858;48.716;9.648;2022-12-29T13:18:17;13.50;1.00
3684;DHT22;1858;48.716;9.648;2022-12-29T13:23:54;13.40;1.00
3684;DHT22;1858;48.716;9.648;2022-12-29T13:26:46;13.30;1.00
3684;DHT22;1858;48.716;9.648;2022-12-29T13:32:13;13.10;1.00
3684;DHT22;1858;48.716;9.648;2022-12-29T13:37:31;13.10;1.00
3684;DHT22;1858;48.716;9.648;2022-12-29T13:40:12;13.10;1.00
3684;DHT22;1858;48.716;9.648;2022-12-29T13:42:41;13.10;1.00
3684;DHT22;1858;48.716;9.648;2022-12-29T13:45:18;12.90;1.00
3684;DHT22;1858;48.716;9.648;2022-12-29T13:48:19;12.80;1.00
3684;DHT22;1858;48.716;9.648;2022-12-29T13:50:55;12.80;1.00
3684;DHT22;1858;48.716;9.648;2022-12-29T13:53:42;12.80;1.00
3684;DHT22;1858;48.716;9.648;2022-12-29T13:56:20;12.90;1.00
3684;DHT22;1858;48.716;9.648;2022-12-29T13:59:21;12.90;1.00
3684;DHT22;1858;48.716;9.648;2022-12-29T14:01:56;13.10;1.00
3684;DHT22;1858;48.716;9.648;2022-12-29T14:04:28;13.10;1.00
3684;DHT22;1858;48.716;9.648;2022-12-29T14:07:13;13.10;1.00
3684;DHT22;1858;48.716;9.648;2022-12-29T14:09:48;13.20;1.00
3684;DHT22;1858;48.716;9.648;2022-12-29T14:15:28;13.20;1.00
3684;DHT22;1858;48.716;9.648;2022-12-29T14:18:28;13.20;1.00
3684;DHT22;1858;48.716;9.648;2022-12-29T14:20:57;13.20;1.00
3684;DHT22;1858;48.716;9.648;2022-12-29T14:23:36;13.20;1.00
3684;DHT22;1858;48.716;9.648;2022-12-29T14:28:44;13.20;1.00
3684;DHT22;1858;48.716;9.648;2022-12-29T14:37:00;13.20;1.00
3684;DHT22;1858;48.716;9.648;2022-12-29T14:39:38;13.20;1.00
3684;DHT22;1858;48.716;9.648;2022-12-29T14:42:12;13.20;1.00
3684;DHT22;1858;48.716;9.648;2022-12-29T14:44:52;13.10;1.00
3684;DHT22;1858;48.716;9.648;2022-12-29T14:47:39;13.10;1.00
3684;DHT22;1858;48.716;9.648;2022-12-29T14:50:13;13.10;1.00
3684;DHT22;1858;48.716;9.648;2022-12-29T14:52:56;13.20;1.00
3684;DHT22;1858;48.716;9.648;2022-12-29T15:00:36;13.20;1.00
3684;DHT22;1858;48.716;9.648;2022-12-29T15:03:07;13.10;1.00
3684;DHT22;1858;48.716;9.648;2022-12-29T15:05:54;13.00;1.00
3684;DHT22;1858;48.716;9.648;2022-12-29T15:08:35;13.00;1.00
3684;DHT22;1858;48.716;9.648;2022-12-29T15:11:05;12.80;1.00
3684;DHT22;1858;48.716;9.648;2022-12-29T15:13:35;12.80;1.00
3684;DHT22;1858;48.716;9.648;2022-12-29T15:16:13;12.70;1.00
3684;DHT22;1858;48.716;9.648;2022-12-29T15:18:35;12.70;1.00
3684;DHT22;1858;48.716;9.648;2022-12-29T15:21:06;12.60;1.00
3684;DHT22;1858;48.716;9.648;2022-12-29T15:23:35;12.60;1.00
3684;DHT22;1858;48.716;9.648;2022-12-29T15:26:16;12.60;1.00
3684;DHT22;1858;48.716;9.648;2022-12-29T15:28:47;12.50;1.00
3684;DHT22;1858;48.716;9.648;2022-12-29T15:31:19;12.50;1.00
3684;DHT22;1858;48.716;9.648;2022-12-29T15:33:50;12.40;1.00
3684;DHT22;1858;48.716;9.648;2022-12-29T15:36:37;12.30;1.00
3684;DHT22;1858;48.716;9.648;2022-12-29T15:38:54;12.20;1.00
3684;DHT22;1858;48.716;9.648;2022-12-29T15:41:36;12.10;1.00
3684;DHT22;1858;48.716;9.648;2022-12-29T15:47:09;12.10;1.00
3684;DHT22;1858;48.716;9.648;2022-12-29T15:50:06;12.00;1.00
3684;DHT22;1858;48.716;9.648;2022-12-29T15:52:32;12.00;1.00
3684;DHT22;1858;48.716;9.648;2022-12-29T15:55:01;12.00;1.00
3684;DHT22;1858;48.716;9.648;2022-12-29T15:57:37;11.90;1.00
3684;DHT22;1858;48.716;9.648;2022-12-29T16:00:34;11.90;1.00
3684;DHT22;1858;48.716;9.648;2022-12-29T16:03:06;12.00;1.00
3684;DHT22;1858;48.716;9.648;2022-12-29T16:05:37;12.00;1.00
3684;DHT22;1858;48.716;9.648;2022-12-29T16:10:56;12.00;1.00
3684;DHT22;1858;48.716;9.648;2022-12-29T16:13:37;12.00;1.00
3684;DHT22;1858;48.716;9.648;2022-12-29T16:16:21;12.00;1.00
3684;DHT22;1858;48.716;9.648;2022-12-29T16:18:39;12.00;1.00
3684;DHT22;1858;48.716;9.648;2022-12-29T16:21:15;12.00;1.00
3684;DHT22;1858;48.716;9.648;2022-12-29T16:23:43;12.00;1.00
3684;DHT22;1858;48.716;9.648;2022-12-29T16:26:20;12.10;1.00
3684;DHT22;1858;48.716;9.648;2022-12-29T16:28:52;12.10;1.00
3684;DHT22;1858;48.716;9.648;2022-12-29T16:31:32;12.10;1.00
3684;DHT22;1858;48.716;9.648;2022-12-29T16:33:55;12.00;1.00
3684;DHT22;1858;48.716;9.648;2022-12-29T16:36:29;12.00;1.00
3684;DHT22;1858;48.716;9.648;2022-12-29T16:39:35;12.00;1.00
3684;DHT22;1858;48.716;9.648;2022-12-29T16:42:36;12.00;1.00
3684;DHT22;1858;48.716;9.648;2022-12-29T16:50:39;12.10;1.00
3684;DHT22;1858;48.716;9.648;2022-12-29T16:53:28;12.10;1.00
3684;DHT22;1858;48.716;9.648;2022-12-29T16:55:59;12.10;1.00
3684;DHT22;1858;48.716;9.648;2022-12-29T16:58:28;12.10;1.00
3684;DHT22;1858;48.716;9.648;2022-12-29T17:01:00;12.10;1.00
3684;DHT22;1858;48.716;9.648;2022-12-29T17:03:38;12.00;1.00
3684;DHT22;1858;48.716;9.648;2022-12-29T17:06:05;12.10;1.00
3684;DHT22;1858;48.716;9.648;2022-12-29T17:08:41;12.00;1.00
3684;DHT22;1858;48.716;9.648;2022-12-29T17:11:21;11.90;1.00
3684;DHT22;1858;48.716;9.648;2022-12-29T17:17:18;11.80;1.00
3684;DHT22;1858;48.716;9.648;2022-12-29T17:19:55;11.70;1.00
3684;DHT22;1858;48.716;9.648;2022-12-29T17:22:25;11.70;1.00
3684;DHT22;1858;48.716;9.648;2022-12-29T17:24:55;11.70;1.00
3684;DHT22;1858;48.716;9.648;2022-12-29T17:27:38;11.70;1.00
3684;DHT22;1858;48.716;9.648;2022-12-29T17:30:16;11.70;1.00
3684;DHT22;1858;48.716;9.648;2022-12-29T17:32:52;11.60;3.90
3684;DHT22;1858;48.716;9.648;2022-12-29T17:35:22;11.60;8.20
3684;DHT22;1858;48.716;9.648;2022-12-29T17:37:51;11.60;14.40
3684;DHT22;1858;48.716;9.648;2022-12-29T17:40:27;11.60;21.50
3684;DHT22;1858;48.716;9.648;2022-12-29T17:42:56;11.60;25.90
3684;DHT22;1858;48.716;9.648;2022-12-29T17:45:29;11.50;29.70
3684;DHT22;1858;48.716;9.648;2022-12-29T17:47:59;11.50;40.00
3684;DHT22;1858;48.716;9.648;2022-12-29T17:50:29;11.40;47.70
3684;DHT22;1858;48.716;9.648;2022-12-29T17:53:04;11.40;58.30
3684;DHT22;1858;48.716;9.648;2022-12-29T17:55:34;11.30;69.60
3684;DHT22;1858;48.716;9.648;2022-12-29T17:58:26;11.20;90.30
3684;DHT22;1858;48.716;9.648;2022-12-29T18:00:34;11.10;99.90
3684;DHT22;1858;48.716;9.648;2022-12-29T18:03:03;11.00;99.90
3684;DHT22;1858;48.716;9.648;2022-12-29T18:05:31;11.00;99.90
3684;DHT22;1858;48.716;9.648;2022-12-29T18:08:00;11.00;99.90
3684;DHT22;1858;48.716;9.648;2022-12-29T18:10:30;11.00;99.90
3684;DHT22;1858;48.716;9.648;2022-12-29T18:12:59;11.00;99.90
3684;DHT22;1858;48.716;9.648;2022-12-29T18:15:32;10.90;99.90
3684;DHT22;1858;48.716;9.648;2022-12-29T18:18:11;11.00;99.90
3684;DHT22;1858;48.716;9.648;2022-12-29T18:20:41;10.90;99.90
3684;DHT22;1858;48.716;9.648;2022-12-29T18:23:26;10.80;99.90
3684;DHT22;1858;48.716;9.648;2022-12-29T18:26:02;10.80;99.90
3684;DHT22;1858;48.716;9.648;2022-12-29T18:28:31;10.80;99.90
3684;DHT22;1858;48.716;9.648;2022-12-29T18:31:01;10.80;99.90
3684;DHT22;1858;48.716;9.648;2022-12-29T18:33:29;10.80;99.90
3684;DHT22;1858;48.716;9.648;2022-12-29T18:36:00;10.70;99.90
3684;DHT22;1858;48.716;9.648;2022-12-29T18:38:29;10.50;99.90
3684;DHT22;1858;48.716;9.648;2022-12-29T18:40:58;10.50;99.90
3684;DHT22;1858;48.716;9.648;2022-12-29T18:43:27;10.40;99.90
3684;DHT22;1858;48.716;9.648;2022-12-29T18:45:55;10.30;99.90
3684;DHT22;1858;48.716;9.648;2022-12-29T18:48:23;10.30;99.90
3684;DHT22;1858;48.716;9.648;2022-12-29T18:50:52;10.40;99.90
3684;DHT22;1858;48.716;9.648;2022-12-29T18:53:23;10.40;99.90